sensor_id;sensor_type;location;lat;lon;timestamp;P1;durP1;ratioP1;P2;durP2;ratioP2
71606;SDS011;60641;53.556;9.914;2023-03-20T00:01:21;30.50;;;14.30;;
71606;SDS011;60641;53.556;9.914;2023-03-20T00:03:49;31.10;;;15.00;;
71606;SDS011;60641;53.556;9.914;2023-03-20T00:06:17;32.00;;;13.80;;
71606;SDS011;60641;53.556;9.914;2023-03-20T00:08:45;30.60;;;13.30;;
71606;SDS011;60641;53.556;9.914;2023-03-20T00:11:31;31.50;;;13.50;;
71606;SDS011;60641;53.556;9.914;2023-03-20T00:14:00;31.30;;;12.90;;
71606;SDS011;60641;53.556;9.914;2023-03-20T00:16:32;31.70;;;13.40;;
71606;SDS011;60641;53.556;9.914;2023-03-20T00:19:00;33.80;;;13.60;;
71606;SDS011;60641;53.556;9.914;2023-03-20T00:21:28;30.60;;;13.20;;
71606;SDS011;60641;53.556;9.914;2023-03-20T00:23:55;30.20;;;13.30;;
71606;SDS011;60641;53.556;9.914;2023-03-20T00:26:26;32.90;;;15.30;;
71606;SDS011;60641;53.556;9.914;2023-03-20T00:28:56;27.70;;;12.70;;
71606;SDS011;60641;53.556;9.914;2023-03-20T00:31:36;30.60;;;13.30;;
71606;SDS011;60641;53.556;9.914;2023-03-20T00:34:09;29.10;;;12.70;;
71606;SDS011;60641;53.556;9.914;2023-03-20T00:36:38;27.90;;;12.80;;
71606;SDS011;60641;53.556;9.914;2023-03-20T00:39:04;26.20;;;12.20;;
71606;SDS011;60641;53.556;9.914;2023-03-20T00:46:50;27.70;;;11.70;;
71606;SDS011;60641;53.556;9.914;2023-03-20T00:49:25;27.40;;;12.60;;
71606;SDS011;60641;53.556;9.914;2023-03-20T00:52:00;26.20;;;12.10;;
71606;SDS011;60641;53.556;9.914;2023-03-20T00:54:27;27.70;;;12.50;;
71606;SDS011;60641;53.556;9.914;2023-03-20T00:56:55;26.20;;;11.90;;
71606;SDS011;60641;53.556;9.914;2023-03-20T00:59:25;24.50;;;11.10;;
71606;SDS011;60641;53.556;9.914;2023-03-20T01:01:54;28.80;;;12.30;;
71606;SDS011;60641;53.556;9.914;2023-03-20T01:04:21;26.20;;;12.00;;
71606;SDS011;60641;53.556;9.914;2023-03-20T01:06:48;25.40;;;10.70;;
71606;SDS011;60641;53.556;9.914;2023-03-20T01:09:14;26.70;;;12.40;;
71606;SDS011;60641;53.556;9.914;2023-03-20T01:11:41;27.10;;;11.40;;
71606;SDS011;60641;53.556;9.914;2023-03-20T01:14:11;25.70;;;11.60;;
71606;SDS011;60641;53.556;9.914;2023-03-20T01:16:39;25.30;;;11.40;;
71606;SDS011;60641;53.556;9.914;2023-03-20T01:19:05;27.40;;;12.20;;
71606;SDS011;60641;53.556;9.914;2023-03-20T01:21:32;25.60;;;11.90;;
71606;SDS011;60641;53.556;9.914;2023-03-20T01:23:58;25.90;;;11.70;;
71606;SDS011;60641;53.556;9.914;2023-03-20T01:29:02;25.20;;;11.60;;
71606;SDS011;60641;53.556;9.914;2023-03-20T01:31:29;25.40;;;11.50;;
71606;SDS011;60641;53.556;9.914;2023-03-20T01:33:55;26.00;;;11.30;;
71606;SDS011;60641;53.556;9.914;2023-03-20T01:36:22;24.10;;;11.10;;
71606;SDS011;60641;53.556;9.914;2023-03-20T01:38:50;24.90;;;11.00;;
71606;SDS011;60641;53.556;9.914;2023-03-20T01:41:19;24.50;;;10.90;;
71606;SDS011;60641;53.556;9.914;2023-03-20T01:43:48;26.70;;;12.30;;
71606;SDS011;60641;53.556;9.914;2023-03-20T01:46:27;27.70;;;12.00;;
71606;SDS011;60641;53.556;9.914;2023-03-20T01:48:58;27.10;;;12.20;;
71606;SDS011;60641;53.556;9.914;2023-03-20T01:51:55;25.20;;;11.10;;
71606;SDS011;60641;53.556;9.914;2023-03-20T01:54:23;24.70;;;11.40;;
71606;SDS011;60641;53.556;9.914;2023-03-20T01:57:11;25.00;;;11.30;;
71606;SDS011;60641;53.556;9.914;2023-03-20T01:59:51;26.70;;;11.60;;
71606;SDS011;60641;53.556;9.914;2023-03-20T02:02:22;26.90;;;12.00;;
71606;SDS011;60641;53.556;9.914;2023-03-20T02:04:53;25.40;;;11.20;;
71606;SDS011;60641;53.556;9.914;2023-03-20T02:07:22;25.60;;;11.70;;
71606;SDS011;60641;53.556;9.914;2023-03-20T02:09:49;28.80;;;11.60;;
71606;SDS011;60641;53.556;9.914;2023-03-20T02:12:16;28.50;;;12.30;;
71606;SDS011;60641;53.556;9.914;2023-03-20T02:14:43;27.50;;;12.30;;
71606;SDS011;60641;53.556;9.914;2023-03-20T02:17:11;28.70;;;12.10;;
71606;SDS011;60641;53.556;9.914;2023-03-20T02:39:42;28.80;;;12.70;;
71606;SDS011;60641;53.556;9.914;2023-03-20T02:47:55;26.70;;;9.90;;
71606;SDS011;60641;53.556;9.914;2023-03-20T02:51:01;24.10;;;9.40;;
71606;SDS011;60641;53.556;9.914;2023-03-20T02:53:32;25.10;;;9.20;;
71606;SDS011;60641;53.556;9.914;2023-03-20T02:58:51;21.00;;;8.10;;
71606;SDS011;60641;53.556;9.914;2023-03-20T03:01:27;19.60;;;7.80;;
71606;SDS011;60641;53.556;9.914;2023-03-20T03:04:02;20.40;;;8.00;;
71606;SDS011;60641;53.556;9.914;2023-03-20T03:06:32;19.20;;;7.70;;
71606;SDS011;60641;53.556;9.914;2023-03-20T03:09:12;21.20;;;8.30;;
71606;SDS011;60641;53.556;9.914;2023-03-20T03:11:42;18.60;;;7.40;;
71606;SDS011;60641;53.556;9.914;2023-03-20T03:14:16;18.30;;;7.40;;
71606;SDS011;60641;53.556;9.914;2023-03-20T03:16:52;18.90;;;6.90;;
71606;SDS011;60641;53.556;9.914;2023-03-20T03:19:20;14.60;;;6.60;;
71606;SDS011;60641;53.556;9.914;2023-03-20T03:21:48;16.30;;;6.10;;
71606;SDS011;60641;53.556;9.914;2023-03-20T03:24:22;15.10;;;6.10;;
71606;SDS011;60641;53.556;9.914;2023-03-20T03:26:58;13.90;;;5.40;;
71606;SDS011;60641;53.556;9.914;2023-03-20T03:29:29;14.00;;;5.00;;
71606;SDS011;60641;53.556;9.914;2023-03-20T03:31:58;12.60;;;5.60;;
71606;SDS011;60641;53.556;9.914;2023-03-20T03:34:26;13.00;;;5.20;;
71606;SDS011;60641;53.556;9.914;2023-03-20T03:37:03;14.40;;;5.50;;
71606;SDS011;60641;53.556;9.914;2023-03-20T03:39:38;12.20;;;5.20;;
71606;SDS011;60641;53.556;9.914;2023-03-20T03:42:30;11.10;;;4.80;;
71606;SDS011;60641;53.556;9.914;2023-03-20T03:45:00;12.30;;;5.00;;
71606;SDS011;60641;53.556;9.914;2023-03-20T03:47:31;10.50;;;4.70;;
71606;SDS011;60641;53.556;9.914;2023-03-20T03:50:02;12.30;;;4.60;;
71606;SDS011;60641;53.556;9.914;2023-03-20T03:52:31;13.30;;;5.60;;
71606;SDS011;60641;53.556;9.914;2023-03-20T03:55:00;11.80;;;5.10;;
71606;SDS011;60641;53.556;9.914;2023-03-20T03:57:31;12.20;;;5.10;;
71606;SDS011;60641;53.556;9.914;2023-03-20T04:00:03;11.80;;;5.30;;
71606;SDS011;60641;53.556;9.914;2023-03-20T04:02:31;12.60;;;4.90;;
71606;SDS011;60641;53.556;9.914;2023-03-20T04:04:59;11.80;;;4.20;;
71606;SDS011;60641;53.556;9.914;2023-03-20T04:07:27;10.90;;;4.30;;
71606;SDS011;60641;53.556;9.914;2023-03-20T04:09:54;11.70;;;4.60;;
71606;SDS011;60641;53.556;9.914;2023-03-20T04:12:31;10.30;;;4.10;;
71606;SDS011;60641;53.556;9.914;2023-03-20T04:15:00;10.20;;;4.40;;
71606;SDS011;60641;53.556;9.914;2023-03-20T04:17:26;10.10;;;4.10;;
71606;SDS011;60641;53.556;9.914;2023-03-20T04:19:53;10.40;;;4.40;;
71606;SDS011;60641;53.556;9.914;2023-03-20T04:22:19;11.20;;;4.20;;
71606;SDS011;60641;53.556;9.914;2023-03-20T04:24:46;10.20;;;3.90;;
71606;SDS011;60641;53.556;9.914;2023-03-20T04:27:12;11.20;;;4.10;;
71606;SDS011;60641;53.556;9.914;2023-03-20T04:29:39;12.30;;;4.40;;
71606;SDS011;60641;53.556;9.914;2023-03-20T04:32:05;10.80;;;4.20;;
71606;SDS011;60641;53.556;9.914;2023-03-20T04:34:32;11.30;;;4.40;;
71606;SDS011;60641;53.556;9.914;2023-03-20T04:36:58;10.00;;;4.10;;
71606;SDS011;60641;53.556;9.914;2023-03-20T04:39:26;11.70;;;4.30;;
71606;SDS011;60641;53.556;9.914;2023-03-20T04:41:53;10.70;;;4.50;;
71606;SDS011;60641;53.556;9.914;2023-03-20T04:44:19;11.00;;;4.60;;
71606;SDS011;60641;53.556;9.914;2023-03-20T04:46:46;10.40;;;4.10;;
71606;SDS011;60641;53.556;9.914;2023-03-20T04:49:12;12.00;;;4.20;;
71606;SDS011;60641;53.556;9.914;2023-03-20T04:51:39;10.90;;;4.20;;
71606;SDS011;60641;53.556;9.914;2023-03-20T04:54:05;9.90;;;3.80;;
71606;SDS011;60641;53.556;9.914;2023-03-20T04:56:32;9.90;;;3.50;;
71606;SDS011;60641;53.556;9.914;2023-03-20T04:58:58;9.40;;;3.70;;
71606;SDS011;60641;53.556;9.914;2023-03-20T05:01:24;9.90;;;3.60;;
71606;SDS011;60641;53.556;9.914;2023-03-20T05:03:51;9.50;;;3.40;;
71606;SDS011;60641;53.556;9.914;2023-03-20T05:06:17;9.30;;;3.40;;
71606;SDS011;60641;53.556;9.914;2023-03-20T05:08:44;9.40;;;3.20;;
71606;SDS011;60641;53.556;9.914;2023-03-20T05:11:10;10.40;;;3.30;;
71606;SDS011;60641;53.556;9.914;2023-03-20T05:13:37;10.00;;;3.70;;
71606;SDS011;60641;53.556;9.914;2023-03-20T05:16:03;9.10;;;3.60;;
71606;SDS011;60641;53.556;9.914;2023-03-20T05:18:32;10.70;;;3.50;;
71606;SDS011;60641;53.556;9.914;2023-03-20T05:20:59;8.30;;;3.20;;
71606;SDS011;60641;53.556;9.914;2023-03-20T05:23:26;8.10;;;2.50;;
71606;SDS011;60641;53.556;9.914;2023-03-20T05:25:52;11.70;;;3.40;;
71606;SDS011;60641;53.556;9.914;2023-03-20T05:28:19;8.30;;;3.20;;
71606;SDS011;60641;53.556;9.914;2023-03-20T05:30:45;8.50;;;3.30;;
71606;SDS011;60641;53.556;9.914;2023-03-20T05:33:12;8.80;;;3.50;;
71606;SDS011;60641;53.556;9.914;2023-03-20T05:35:38;10.00;;;4.00;;
71606;SDS011;60641;53.556;9.914;2023-03-20T05:38:05;8.70;;;3.00;;
71606;SDS011;60641;53.556;9.914;2023-03-20T05:40:32;10.20;;;3.40;;
71606;SDS011;60641;53.556;9.914;2023-03-20T05:42:58;8.90;;;3.80;;
71606;SDS011;60641;53.556;9.914;2023-03-20T05:45:24;9.90;;;3.10;;
71606;SDS011;60641;53.556;9.914;2023-03-20T05:47:51;8.80;;;3.80;;
71606;SDS011;60641;53.556;9.914;2023-03-20T05:50:18;7.50;;;3.10;;
71606;SDS011;60641;53.556;9.914;2023-03-20T05:52:47;9.20;;;3.30;;
71606;SDS011;60641;53.556;9.914;2023-03-20T05:55:14;10.20;;;3.70;;
71606;SDS011;60641;53.556;9.914;2023-03-20T05:57:41;10.40;;;3.80;;
71606;SDS011;60641;53.556;9.914;2023-03-20T06:00:08;9.30;;;3.90;;
71606;SDS011;60641;53.556;9.914;2023-03-20T06:02:38;9.70;;;3.90;;
71606;SDS011;60641;53.556;9.914;2023-03-20T06:05:05;10.30;;;3.80;;
71606;SDS011;60641;53.556;9.914;2023-03-20T06:07:31;10.90;;;3.90;;
71606;SDS011;60641;53.556;9.914;2023-03-20T06:09:58;10.00;;;3.70;;
71606;SDS011;60641;53.556;9.914;2023-03-20T06:12:24;12.70;;;4.10;;
71606;SDS011;60641;53.556;9.914;2023-03-20T06:14:51;8.60;;;3.50;;
71606;SDS011;60641;53.556;9.914;2023-03-20T06:17:17;8.90;;;3.50;;
71606;SDS011;60641;53.556;9.914;2023-03-20T06:19:44;8.70;;;3.70;;
71606;SDS011;60641;53.556;9.914;2023-03-20T06:22:10;9.50;;;3.70;;
71606;SDS011;60641;53.556;9.914;2023-03-20T06:24:37;10.10;;;3.90;;
71606;SDS011;60641;53.556;9.914;2023-03-20T06:27:03;10.20;;;3.60;;
71606;SDS011;60641;53.556;9.914;2023-03-20T06:29:30;8.30;;;3.30;;
71606;SDS011;60641;53.556;9.914;2023-03-20T06:31:56;9.00;;;4.00;;
71606;SDS011;60641;53.556;9.914;2023-03-20T06:34:23;9.00;;;3.40;;
71606;SDS011;60641;53.556;9.914;2023-03-20T06:36:49;9.30;;;3.80;;
71606;SDS011;60641;53.556;9.914;2023-03-20T06:39:16;8.80;;;3.30;;
71606;SDS011;60641;53.556;9.914;2023-03-20T06:41:43;9.80;;;3.70;;
71606;SDS011;60641;53.556;9.914;2023-03-20T06:44:09;10.20;;;4.10;;
71606;SDS011;60641;53.556;9.914;2023-03-20T06:46:35;8.30;;;3.20;;
71606;SDS011;60641;53.556;9.914;2023-03-20T06:49:02;8.50;;;3.40;;
71606;SDS011;60641;53.556;9.914;2023-03-20T06:51:29;9.50;;;3.60;;
71606;SDS011;60641;53.556;9.914;2023-03-20T06:53:55;9.50;;;3.50;;
71606;SDS011;60641;53.556;9.914;2023-03-20T06:56:22;9.40;;;3.40;;
71606;SDS011;60641;53.556;9.914;2023-03-20T06:58:48;9.00;;;3.40;;
71606;SDS011;60641;53.556;9.914;2023-03-20T07:01:15;8.70;;;3.70;;
71606;SDS011;60641;53.556;9.914;2023-03-20T07:03:42;9.10;;;3.30;;
71606;SDS011;60641;53.556;9.914;2023-03-20T07:06:09;7.80;;;3.10;;
71606;SDS011;60641;53.556;9.914;2023-03-20T07:08:37;10.10;;;3.50;;
71606;SDS011;60641;53.556;9.914;2023-03-20T07:11:03;9.20;;;3.20;;
71606;SDS011;60641;53.556;9.914;2023-03-20T07:13:30;8.50;;;3.20;;
71606;SDS011;60641;53.556;9.914;2023-03-20T07:15:59;9.60;;;3.10;;
71606;SDS011;60641;53.556;9.914;2023-03-20T07:18:26;8.20;;;3.30;;
71606;SDS011;60641;53.556;9.914;2023-03-20T07:20:53;9.80;;;3.40;;
71606;SDS011;60641;53.556;9.914;2023-03-20T07:23:24;11.30;;;3.40;;
71606;SDS011;60641;53.556;9.914;2023-03-20T07:25:51;9.70;;;3.80;;
71606;SDS011;60641;53.556;9.914;2023-03-20T07:28:18;9.50;;;3.70;;
71606;SDS011;60641;53.556;9.914;2023-03-20T07:30:44;9.00;;;3.40;;
71606;SDS011;60641;53.556;9.914;2023-03-20T07:33:11;12.10;;;3.30;;
71606;SDS011;60641;53.556;9.914;2023-03-20T07:35:37;9.70;;;3.50;;
71606;SDS011;60641;53.556;9.914;2023-03-20T07:38:04;11.10;;;3.60;;
71606;SDS011;60641;53.556;9.914;2023-03-20T07:40:32;8.30;;;3.20;;
71606;SDS011;60641;53.556;9.914;2023-03-20T07:42:58;10.50;;;3.70;;
71606;SDS011;60641;53.556;9.914;2023-03-20T07:45:26;9.60;;;3.20;;
71606;SDS011;60641;53.556;9.914;2023-03-20T07:47:52;8.90;;;3.30;;
71606;SDS011;60641;53.556;9.914;2023-03-20T07:50:19;8.10;;;3.00;;
71606;SDS011;60641;53.556;9.914;2023-03-20T07:52:46;10.00;;;3.30;;
71606;SDS011;60641;53.556;9.914;2023-03-20T07:55:13;9.30;;;3.20;;
71606;SDS011;60641;53.556;9.914;2023-03-20T07:57:41;9.70;;;3.40;;
71606;SDS011;60641;53.556;9.914;2023-03-20T08:00:07;8.40;;;2.90;;
71606;SDS011;60641;53.556;9.914;2023-03-20T08:02:34;8.20;;;2.90;;
71606;SDS011;60641;53.556;9.914;2023-03-20T08:05:01;11.30;;;3.60;;
71606;SDS011;60641;53.556;9.914;2023-03-20T08:07:28;10.20;;;3.20;;
71606;SDS011;60641;53.556;9.914;2023-03-20T08:09:54;8.50;;;3.10;;
71606;SDS011;60641;53.556;9.914;2023-03-20T08:12:21;13.10;;;3.50;;
71606;SDS011;60641;53.556;9.914;2023-03-20T08:14:47;9.30;;;3.10;;
71606;SDS011;60641;53.556;9.914;2023-03-20T08:17:14;8.30;;;3.20;;
71606;SDS011;60641;53.556;9.914;2023-03-20T08:19:40;11.90;;;3.40;;
71606;SDS011;60641;53.556;9.914;2023-03-20T08:22:06;8.40;;;2.80;;
71606;SDS011;60641;53.556;9.914;2023-03-20T08:24:33;9.00;;;2.90;;
71606;SDS011;60641;53.556;9.914;2023-03-20T08:26:59;8.80;;;2.70;;
71606;SDS011;60641;53.556;9.914;2023-03-20T08:29:26;7.80;;;2.80;;
71606;SDS011;60641;53.556;9.914;2023-03-20T08:31:52;9.60;;;3.20;;
71606;SDS011;60641;53.556;9.914;2023-03-20T08:34:19;7.90;;;2.60;;
71606;SDS011;60641;53.556;9.914;2023-03-20T08:36:45;8.70;;;2.80;;
71606;SDS011;60641;53.556;9.914;2023-03-20T08:39:12;11.50;;;3.50;;
71606;SDS011;60641;53.556;9.914;2023-03-20T08:41:38;8.50;;;3.10;;
71606;SDS011;60641;53.556;9.914;2023-03-20T08:44:07;9.90;;;3.30;;
71606;SDS011;60641;53.556;9.914;2023-03-20T08:46:33;9.00;;;3.10;;
71606;SDS011;60641;53.556;9.914;2023-03-20T08:48:59;10.00;;;3.40;;
71606;SDS011;60641;53.556;9.914;2023-03-20T08:51:26;7.60;;;3.30;;
71606;SDS011;60641;53.556;9.914;2023-03-20T08:53:53;8.80;;;3.40;;
71606;SDS011;60641;53.556;9.914;2023-03-20T08:56:19;11.40;;;3.50;;
71606;SDS011;60641;53.556;9.914;2023-03-20T08:58:46;9.80;;;3.40;;
71606;SDS011;60641;53.556;9.914;2023-03-20T09:01:12;8.50;;;3.30;;
71606;SDS011;60641;53.556;9.914;2023-03-20T09:03:40;9.10;;;3.40;;
71606;SDS011;60641;53.556;9.914;2023-03-20T09:06:07;8.70;;;3.10;;
71606;SDS011;60641;53.556;9.914;2023-03-20T09:08:34;8.10;;;3.10;;
71606;SDS011;60641;53.556;9.914;2023-03-20T09:11:01;11.00;;;3.50;;
71606;SDS011;60641;53.556;9.914;2023-03-20T09:13:29;10.00;;;3.50;;
71606;SDS011;60641;53.556;9.914;2023-03-20T09:15:55;8.30;;;3.30;;
71606;SDS011;60641;53.556;9.914;2023-03-20T09:18:22;9.10;;;3.60;;
71606;SDS011;60641;53.556;9.914;2023-03-20T09:20:49;10.20;;;3.50;;
71606;SDS011;60641;53.556;9.914;2023-03-20T09:23:17;12.70;;;4.60;;
71606;SDS011;60641;53.556;9.914;2023-03-20T09:25:44;9.50;;;3.40;;
71606;SDS011;60641;53.556;9.914;2023-03-20T09:28:10;8.00;;;3.40;;
71606;SDS011;60641;53.556;9.914;2023-03-20T09:30:37;8.90;;;3.30;;
71606;SDS011;60641;53.556;9.914;2023-03-20T09:33:03;8.70;;;3.60;;
71606;SDS011;60641;53.556;9.914;2023-03-20T09:35:30;11.50;;;3.60;;
71606;SDS011;60641;53.556;9.914;2023-03-20T09:37:56;9.80;;;3.80;;
71606;SDS011;60641;53.556;9.914;2023-03-20T09:40:24;12.70;;;3.80;;
71606;SDS011;60641;53.556;9.914;2023-03-20T09:42:56;12.70;;;3.60;;
71606;SDS011;60641;53.556;9.914;2023-03-20T09:45:44;12.40;;;3.70;;
71606;SDS011;60641;53.556;9.914;2023-03-20T09:48:26;10.80;;;3.80;;
71606;SDS011;60641;53.556;9.914;2023-03-20T09:51:03;10.40;;;3.50;;
71606;SDS011;60641;53.556;9.914;2023-03-20T09:53:55;12.40;;;4.20;;
71606;SDS011;60641;53.556;9.914;2023-03-20T09:56:28;9.20;;;3.80;;
71606;SDS011;60641;53.556;9.914;2023-03-20T09:59:02;14.10;;;4.10;;
71606;SDS011;60641;53.556;9.914;2023-03-20T10:01:32;10.60;;;4.10;;
71606;SDS011;60641;53.556;9.914;2023-03-20T10:04:08;12.70;;;4.00;;
71606;SDS011;60641;53.556;9.914;2023-03-20T10:06:35;10.40;;;3.70;;
71606;SDS011;60641;53.556;9.914;2023-03-20T10:09:05;11.50;;;4.10;;
71606;SDS011;60641;53.556;9.914;2023-03-20T10:22:12;12.40;;;4.30;;
71606;SDS011;60641;53.556;9.914;2023-03-20T10:24:49;14.70;;;4.10;;
71606;SDS011;60641;53.556;9.914;2023-03-20T10:27:24;9.70;;;3.50;;
71606;SDS011;60641;53.556;9.914;2023-03-20T10:29:54;15.60;;;4.60;;
71606;SDS011;60641;53.556;9.914;2023-03-20T10:35:01;11.40;;;4.30;;
71606;SDS011;60641;53.556;9.914;2023-03-20T10:40:25;11.10;;;4.00;;
71606;SDS011;60641;53.556;9.914;2023-03-20T10:42:58;11.30;;;3.80;;
71606;SDS011;60641;53.556;9.914;2023-03-20T10:45:33;11.60;;;3.50;;
71606;SDS011;60641;53.556;9.914;2023-03-20T10:48:05;10.70;;;3.80;;
71606;SDS011;60641;53.556;9.914;2023-03-20T10:50:40;10.00;;;3.70;;
71606;SDS011;60641;53.556;9.914;2023-03-20T10:53:17;9.70;;;3.90;;
71606;SDS011;60641;53.556;9.914;2023-03-20T10:55:53;12.90;;;3.70;;
71606;SDS011;60641;53.556;9.914;2023-03-20T10:58:21;10.00;;;3.50;;
71606;SDS011;60641;53.556;9.914;2023-03-20T11:00:49;9.10;;;3.20;;
71606;SDS011;60641;53.556;9.914;2023-03-20T11:03:19;15.60;;;3.40;;
71606;SDS011;60641;53.556;9.914;2023-03-20T11:06:01;10.50;;;3.50;;
71606;SDS011;60641;53.556;9.914;2023-03-20T11:08:30;9.50;;;3.20;;
71606;SDS011;60641;53.556;9.914;2023-03-20T11:11:02;11.00;;;3.30;;
71606;SDS011;60641;53.556;9.914;2023-03-20T11:13:37;9.00;;;3.40;;
71606;SDS011;60641;53.556;9.914;2023-03-20T11:16:16;10.90;;;3.30;;
71606;SDS011;60641;53.556;9.914;2023-03-20T11:18:48;9.10;;;3.40;;
71606;SDS011;60641;53.556;9.914;2023-03-20T11:23:48;12.20;;;3.60;;
71606;SDS011;60641;53.556;9.914;2023-03-20T11:26:19;10.00;;;3.30;;
71606;SDS011;60641;53.556;9.914;2023-03-20T11:29:03;9.20;;;3.10;;
71606;SDS011;60641;53.556;9.914;2023-03-20T11:31:38;11.00;;;3.70;;
71606;SDS011;60641;53.556;9.914;2023-03-20T11:36:32;9.30;;;3.30;;
71606;SDS011;60641;53.556;9.914;2023-03-20T11:39:04;9.50;;;3.40;;
71606;SDS011;60641;53.556;9.914;2023-03-20T11:41:31;9.10;;;3.10;;
71606;SDS011;60641;53.556;9.914;2023-03-20T11:43:58;11.40;;;3.80;;
71606;SDS011;60641;53.556;9.914;2023-03-20T11:46:25;11.90;;;4.10;;
71606;SDS011;60641;53.556;9.914;2023-03-20T11:49:05;11.50;;;3.90;;
71606;SDS011;60641;53.556;9.914;2023-03-20T11:51:36;9.50;;;3.20;;
71606;SDS011;60641;53.556;9.914;2023-03-20T11:54:04;9.90;;;3.90;;
71606;SDS011;60641;53.556;9.914;2023-03-20T11:56:32;10.20;;;3.60;;
71606;SDS011;60641;53.556;9.914;2023-03-20T11:59:06;10.60;;;3.60;;
71606;SDS011;60641;53.556;9.914;2023-03-20T12:01:39;11.30;;;3.50;;
71606;SDS011;60641;53.556;9.914;2023-03-20T12:04:19;11.00;;;3.30;;
71606;SDS011;60641;53.556;9.914;2023-03-20T12:06:53;9.70;;;3.40;;
71606;SDS011;60641;53.556;9.914;2023-03-20T12:12:07;10.90;;;3.40;;
71606;SDS011;60641;53.556;9.914;2023-03-20T12:14:42;10.30;;;3.80;;
71606;SDS011;60641;53.556;9.914;2023-03-20T12:17:30;10.90;;;4.00;;
71606;SDS011;60641;53.556;9.914;2023-03-20T12:20:04;9.20;;;3.30;;
71606;SDS011;60641;53.556;9.914;2023-03-20T12:22:38;13.20;;;3.80;;
71606;SDS011;60641;53.556;9.914;2023-03-20T12:25:21;9.10;;;3.50;;
71606;SDS011;60641;53.556;9.914;2023-03-20T12:28:04;9.90;;;3.10;;
71606;SDS011;60641;53.556;9.914;2023-03-20T12:33:41;10.30;;;3.70;;
71606;SDS011;60641;53.556;9.914;2023-03-20T12:36:32;11.00;;;3.70;;
71606;SDS011;60641;53.556;9.914;2023-03-20T12:39:03;12.20;;;3.80;;
71606;SDS011;60641;53.556;9.914;2023-03-20T13:00:39;10.10;;;4.00;;
71606;SDS011;60641;53.556;9.914;2023-03-20T13:06:53;8.20;;;3.00;;
71606;SDS011;60641;53.556;9.914;2023-03-20T13:14:51;12.00;;;3.20;;
71606;SDS011;60641;53.556;9.914;2023-03-20T13:23:10;10.20;;;3.30;;
71606;SDS011;60641;53.556;9.914;2023-03-20T13:28:44;8.90;;;3.00;;
71606;SDS011;60641;53.556;9.914;2023-03-20T13:39:20;9.50;;;3.00;;
71606;SDS011;60641;53.556;9.914;2023-03-20T13:41:49;8.20;;;2.90;;
71606;SDS011;60641;53.556;9.914;2023-03-20T13:44:17;9.20;;;3.20;;
71606;SDS011;60641;53.556;9.914;2023-03-20T13:46:50;11.30;;;3.30;;
71606;SDS011;60641;53.556;9.914;2023-03-20T13:51:59;8.70;;;3.00;;
71606;SDS011;60641;53.556;9.914;2023-03-20T13:57:24;10.30;;;3.00;;
71606;SDS011;60641;53.556;9.914;2023-03-20T14:00:00;8.60;;;3.10;;
71606;SDS011;60641;53.556;9.914;2023-03-20T14:05:37;13.20;;;3.00;;
71606;SDS011;60641;53.556;9.914;2023-03-20T14:07:56;8.80;;;3.00;;
71606;SDS011;60641;53.556;9.914;2023-03-20T14:13:11;9.90;;;3.50;;
71606;SDS011;60641;53.556;9.914;2023-03-20T14:15:40;8.70;;;2.90;;
71606;SDS011;60641;53.556;9.914;2023-03-20T14:18:15;10.90;;;3.00;;
71606;SDS011;60641;53.556;9.914;2023-03-20T14:20:42;10.10;;;3.30;;
71606;SDS011;60641;53.556;9.914;2023-03-20T14:23:15;10.30;;;3.00;;
71606;SDS011;60641;53.556;9.914;2023-03-20T14:25:43;9.80;;;3.00;;
71606;SDS011;60641;53.556;9.914;2023-03-20T14:35:45;8.30;;;2.70;;
71606;SDS011;60641;53.556;9.914;2023-03-20T14:38:19;9.90;;;3.30;;
71606;SDS011;60641;53.556;9.914;2023-03-20T14:46:16;6.90;;;2.60;;
71606;SDS011;60641;53.556;9.914;2023-03-20T14:48:49;9.10;;;2.70;;
71606;SDS011;60641;53.556;9.914;2023-03-20T14:51:23;10.50;;;3.00;;
71606;SDS011;60641;53.556;9.914;2023-03-20T14:54:21;10.40;;;2.80;;
71606;SDS011;60641;53.556;9.914;2023-03-20T14:56:46;8.30;;;2.80;;
71606;SDS011;60641;53.556;9.914;2023-03-20T14:59:14;10.40;;;3.10;;
71606;SDS011;60641;53.556;9.914;2023-03-20T15:07:21;9.60;;;3.30;;
71606;SDS011;60641;53.556;9.914;2023-03-20T15:09:52;9.10;;;3.50;;
71606;SDS011;60641;53.556;9.914;2023-03-20T15:12:25;8.50;;;3.10;;
71606;SDS011;60641;53.556;9.914;2023-03-20T15:15:00;10.90;;;3.10;;
71606;SDS011;60641;53.556;9.914;2023-03-20T15:17:39;12.40;;;3.10;;
71606;SDS011;60641;53.556;9.914;2023-03-20T15:25:31;4.90;;;1.50;;
71606;SDS011;60641;53.556;9.914;2023-03-20T15:28:04;7.90;;;2.90;;
71606;SDS011;60641;53.556;9.914;2023-03-20T15:30:32;10.30;;;2.80;;
71606;SDS011;60641;53.556;9.914;2023-03-20T15:32:59;10.10;;;3.00;;
71606;SDS011;60641;53.556;9.914;2023-03-20T15:35:26;9.50;;;2.50;;
71606;SDS011;60641;53.556;9.914;2023-03-20T15:37:52;9.50;;;2.80;;
71606;SDS011;60641;53.556;9.914;2023-03-20T15:42:57;10.70;;;3.90;;
71606;SDS011;60641;53.556;9.914;2023-03-20T15:45:26;9.90;;;3.10;;
71606;SDS011;60641;53.556;9.914;2023-03-20T15:48:00;9.40;;;3.40;;
71606;SDS011;60641;53.556;9.914;2023-03-20T15:50:29;11.50;;;3.20;;
71606;SDS011;60641;53.556;9.914;2023-03-20T15:52:57;10.60;;;3.20;;
71606;SDS011;60641;53.556;9.914;2023-03-20T15:55:23;11.90;;;3.30;;
71606;SDS011;60641;53.556;9.914;2023-03-20T15:57:51;10.80;;;3.20;;
71606;SDS011;60641;53.556;9.914;2023-03-20T16:00:25;13.20;;;3.80;;
71606;SDS011;60641;53.556;9.914;2023-03-20T16:02:54;8.60;;;3.30;;
71606;SDS011;60641;53.556;9.914;2023-03-20T16:05:25;11.90;;;3.60;;
71606;SDS011;60641;53.556;9.914;2023-03-20T16:07:53;11.00;;;3.90;;
71606;SDS011;60641;53.556;9.914;2023-03-20T16:10:30;13.40;;;4.00;;
71606;SDS011;60641;53.556;9.914;2023-03-20T16:13:02;9.50;;;3.90;;
71606;SDS011;60641;53.556;9.914;2023-03-20T16:15:30;10.30;;;4.00;;
71606;SDS011;60641;53.556;9.914;2023-03-20T16:17:59;12.50;;;3.50;;
71606;SDS011;60641;53.556;9.914;2023-03-20T16:20:32;12.80;;;4.10;;
71606;SDS011;60641;53.556;9.914;2023-03-20T16:23:03;12.60;;;3.60;;
71606;SDS011;60641;53.556;9.914;2023-03-20T16:25:31;12.00;;;4.10;;
71606;SDS011;60641;53.556;9.914;2023-03-20T16:27:59;13.10;;;3.90;;
71606;SDS011;60641;53.556;9.914;2023-03-20T16:30:29;11.60;;;4.50;;
71606;SDS011;60641;53.556;9.914;2023-03-20T16:33:01;14.40;;;4.80;;
71606;SDS011;60641;53.556;9.914;2023-03-20T16:35:35;13.10;;;4.60;;
71606;SDS011;60641;53.556;9.914;2023-03-20T16:38:15;12.50;;;4.50;;
71606;SDS011;60641;53.556;9.914;2023-03-20T16:40:51;10.90;;;4.30;;
71606;SDS011;60641;53.556;9.914;2023-03-20T16:43:29;13.10;;;4.40;;
71606;SDS011;60641;53.556;9.914;2023-03-20T16:45:57;13.90;;;4.60;;
71606;SDS011;60641;53.556;9.914;2023-03-20T16:48:30;12.10;;;3.90;;
71606;SDS011;60641;53.556;9.914;2023-03-20T16:53:36;13.80;;;4.50;;
71606;SDS011;60641;53.556;9.914;2023-03-20T16:56:09;14.00;;;4.50;;
71606;SDS011;60641;53.556;9.914;2023-03-20T16:58:37;14.10;;;4.90;;
71606;SDS011;60641;53.556;9.914;2023-03-20T17:01:07;12.50;;;4.50;;
71606;SDS011;60641;53.556;9.914;2023-03-20T17:08:46;15.60;;;5.50;;
71606;SDS011;60641;53.556;9.914;2023-03-20T17:13:58;11.80;;;4.20;;
71606;SDS011;60641;53.556;9.914;2023-03-20T17:16:25;12.00;;;4.40;;
71606;SDS011;60641;53.556;9.914;2023-03-20T17:18:57;12.70;;;4.40;;
71606;SDS011;60641;53.556;9.914;2023-03-20T17:21:24;11.70;;;4.40;;
71606;SDS011;60641;53.556;9.914;2023-03-20T17:23:51;11.10;;;4.50;;
71606;SDS011;60641;53.556;9.914;2023-03-20T17:26:18;11.60;;;4.70;;
71606;SDS011;60641;53.556;9.914;2023-03-20T17:28:44;15.40;;;4.70;;
71606;SDS011;60641;53.556;9.914;2023-03-20T17:31:12;14.10;;;5.40;;